Terminal Aerodrome Forecast
Issued by NWS Charleston, WV

Current Version | Previous Version | Graphics & Text | Print | Product List | Glossary On
Versions: 1 2 3 4 5 6 7 8 9 10 11 12 13 14 15 16 17 18 19 20 21 22 23
000
FTUS41 KRLX 172300 RRA
TAFPKB
TAF
KPKB 172341Z 1800/1824 00000KT P6SM BKN250
     FM180600 00000KT 3/4SM BR SCT100
     FM180700 00000KT 1/2SM FG SCT001
     FM181400 02004KT 5SM BR BKN250
     FM181500 03004KT P6SM SCT250
     FM181600 02004KT P6SM FEW040=

USA.gov is the U.S. government's official web portal to all federal, state and local government web resources and services.